PWSweather.com
Personal Weather Stations
Station Observations
FAUSKE
Nordland, Norway, FauskeNO 8200

Nordland, NorwayFauskeNO 8200

Lat: 67.2607586, Lon: 15.4114204

Elevation: 40

Station Type: Davis Vantage PRO2

http://www.bjornli.net/weather.html

High Low Average
Temperature 56.3°F13.5°C 46.1°F7.8°C 51.0°F10.6°C
Dew Point 55.5°F13.1°C 44.8°F7.1°C 49.7°F9.8°C
Winds 10.0 mph 16.1 kmh Calm Calm Calm SWCalm SW
Wind Gusts 13.0 mph20.9 kmh -- 1.0 mph1.6 kmh
Humidity 97% 93% 95%
Pressure 29.49 in998.6 mb 29.36 in994.2 mb -
Precipitation 0.00 in0.0 mm - -
Hour Temp Dew Point Humidity Winds Wind Gusts Pressure Precip Precip Rate Daily Precip Total
12:00 AM 53.4°F11.9°C 51.4°F10.8°C 93% Calm Calm -- 29.38 in994.9 mb 0.03 in0.8 mm 0.00 in0.0 mm 0.03 in0.8 mm
12:09 AM 53.4°F11.9°C 51.7°F10.9°C 94% Calm Calm -- 29.38 in994.9 mb 0.03 in0.8 mm 0.00 in0.0 mm 0.03 in0.8 mm
12:30 AM 53.2°F11.8°C 51.5°F10.8°C 94% Calm Calm -- 29.37 in994.6 mb 0.03 in0.8 mm 0.00 in0.0 mm 0.03 in0.8 mm
12:40 AM 53.1°F11.7°C 51.4°F10.8°C 94% Calm Calm -- 29.37 in994.6 mb 0.03 in0.8 mm 0.00 in0.0 mm 0.03 in0.8 mm
01:00 AM 52.9°F11.6°C 51.5°F10.8°C 95% Calm Calm -- 29.38 in994.9 mb 0.01 in0.3 mm 0.00 in0.0 mm 0.03 in0.8 mm
01:10 AM 53.0°F11.7°C 51.6°F10.9°C 95% Calm Calm -- 29.38 in994.9 mb 0.01 in0.3 mm 0.00 in0.0 mm 0.03 in0.8 mm
01:30 AM 52.9°F11.6°C 51.5°F10.8°C 95% Calm Calm -- 29.38 in994.9 mb 0.02 in0.5 mm 0.03 in0.8 mm 0.04 in1.0 mm
01:40 AM 52.9°F11.6°C 51.5°F10.8°C 95% Calm Calm -- 29.38 in994.9 mb 0.03 in0.8 mm 0.06 in1.5 mm 0.05 in1.3 mm
02:00 AM 52.8°F11.6°C 51.4°F10.8°C 95% Calm Calm -- 29.38 in994.9 mb 0.06 in1.5 mm 0.05 in1.3 mm 0.08 in2.0 mm
02:10 AM 52.7°F11.5°C 51.3°F10.7°C 95% Calm Calm -- 29.38 in994.9 mb 0.06 in1.5 mm 0.00 in0.0 mm 0.08 in2.0 mm
02:30 AM 52.5°F11.4°C 51.1°F10.6°C 95% Calm Calm -- 29.38 in994.9 mb 0.04 in1.0 mm 0.00 in0.0 mm 0.08 in2.0 mm
02:40 AM 52.4°F11.3°C 51.0°F10.6°C 95% Calm Calm -- 29.39 in995.3 mb 0.05 in1.3 mm 0.06 in1.5 mm 0.09 in2.3 mm
03:00 AM 52.3°F11.3°C 51.2°F10.7°C 96% Calm Calm -- 29.38 in994.9 mb 0.03 in0.8 mm 0.00 in0.0 mm 0.09 in2.3 mm
03:10 AM 52.3°F11.3°C 51.2°F10.7°C 96% Calm Calm -- 29.38 in994.9 mb 0.03 in0.8 mm 0.00 in0.0 mm 0.09 in2.3 mm
03:30 AM 52.2°F11.2°C 51.1°F10.6°C 96% Calm Calm -- 29.38 in994.9 mb 0.02 in0.5 mm 0.00 in0.0 mm 0.09 in2.3 mm
03:40 AM 52.2°F11.2°C 51.1°F10.6°C 96% Calm Calm -- 29.38 in994.9 mb 0.02 in0.5 mm 0.00 in0.0 mm 0.09 in2.3 mm
04:00 AM 52.2°F11.2°C 51.1°F10.6°C 96% Calm Calm -- 29.37 in994.6 mb 0.00 in0.0 mm 0.00 in0.0 mm 0.09 in2.3 mm
04:10 AM 52.2°F11.2°C 51.1°F10.6°C 96% Calm Calm -- 29.37 in994.6 mb 0.00 in0.0 mm 0.00 in0.0 mm 0.09 in2.3 mm
04:30 AM 52.4°F11.3°C 51.3°F10.7°C 96% Calm Calm -- 29.37 in994.6 mb 0.00 in0.0 mm 0.00 in0.0 mm 0.09 in2.3 mm
04:40 AM 52.4°F11.3°C 51.3°F10.7°C 96% Calm Calm -- 29.37 in994.6 mb 0.00 in0.0 mm 0.00 in0.0 mm 0.09 in2.3 mm
05:00 AM 52.4°F11.3°C 51.3°F10.7°C 96% Calm Calm -- 29.37 in994.6 mb 0.01 in0.3 mm 0.02 in0.5 mm 0.10 in2.5 mm
05:10 AM 52.4°F11.3°C 51.3°F10.7°C 96% Calm Calm -- 29.36 in994.2 mb 0.01 in0.3 mm 0.00 in0.0 mm 0.10 in2.5 mm
05:30 AM 52.2°F11.2°C 51.1°F10.6°C 96% Calm Calm -- 29.37 in994.6 mb 0.01 in0.3 mm 0.00 in0.0 mm 0.10 in2.5 mm
05:40 AM 52.2°F11.2°C 51.1°F10.6°C 96% Calm Calm -- 29.37 in994.6 mb 0.01 in0.3 mm 0.00 in0.0 mm 0.10 in2.5 mm
06:00 AM 52.2°F11.2°C 51.1°F10.6°C 96% Calm Calm -- 29.37 in994.6 mb 0.00 in0.0 mm 0.00 in0.0 mm 0.10 in2.5 mm
06:10 AM 52.2°F11.2°C 51.1°F10.6°C 96% Calm Calm -- 29.36 in994.2 mb 0.00 in0.0 mm 0.00 in0.0 mm 0.10 in2.5 mm
06:30 AM 52.3°F11.3°C 51.5°F10.8°C 97% Calm Calm -- 29.37 in994.6 mb 0.00 in0.0 mm 0.00 in0.0 mm 0.10 in2.5 mm
06:39 AM 52.3°F11.3°C 51.5°F10.8°C 97% Calm Calm -- 29.37 in994.6 mb 0.00 in0.0 mm 0.00 in0.0 mm 0.10 in2.5 mm
07:00 AM 52.5°F11.4°C 51.7°F10.9°C 97% Calm Calm -- 29.37 in994.6 mb 0.00 in0.0 mm 0.00 in0.0 mm 0.10 in2.5 mm
07:09 AM 52.6°F11.4°C 51.8°F11.0°C 97% Calm Calm -- 29.37 in994.6 mb 0.00 in0.0 mm 0.00 in0.0 mm 0.10 in2.5 mm
07:30 AM 52.7°F11.5°C 51.9°F11.1°C 97% Calm Calm -- 29.38 in994.9 mb 0.00 in0.0 mm 0.00 in0.0 mm 0.10 in2.5 mm
07:40 AM 52.8°F11.6°C 52.0°F11.1°C 97% Calm Calm -- 29.38 in994.9 mb 0.00 in0.0 mm 0.00 in0.0 mm 0.10 in2.5 mm
08:00 AM 53.0°F11.7°C 52.2°F11.2°C 97% Calm Calm -- 29.38 in994.9 mb 0.00 in0.0 mm 0.00 in0.0 mm 0.10 in2.5 mm
08:09 AM 53.0°F11.7°C 52.2°F11.2°C 97% Calm Calm -- 29.37 in994.6 mb 0.00 in0.0 mm 0.00 in0.0 mm 0.10 in2.5 mm
08:30 AM 52.9°F11.6°C 52.1°F11.2°C 97% Calm Calm -- 29.38 in994.9 mb 0.00 in0.0 mm 0.00 in0.0 mm 0.10 in2.5 mm
08:40 AM 53.0°F11.7°C 52.2°F11.2°C 97% Calm Calm -- 29.38 in994.9 mb 0.00 in0.0 mm 0.00 in0.0 mm 0.10 in2.5 mm
09:00 AM 53.6°F12.0°C 52.8°F11.6°C 97% Calm Calm -- 29.38 in994.9 mb 0.00 in0.0 mm 0.00 in0.0 mm 0.10 in2.5 mm
09:09 AM 54.1°F12.3°C 53.3°F11.8°C 97% Calm Calm -- 29.38 in994.9 mb 0.00 in0.0 mm 0.00 in0.0 mm 0.10 in2.5 mm
09:30 AM 55.5°F13.1°C 54.7°F12.6°C 97% Calm Calm -- 29.38 in994.9 mb 0.00 in0.0 mm 0.00 in0.0 mm 0.10 in2.5 mm
09:40 AM 55.1°F12.8°C 54.3°F12.4°C 97% Calm Calm -- 29.38 in994.9 mb 0.00 in0.0 mm 0.00 in0.0 mm 0.10 in2.5 mm
10:00 AM 54.4°F12.4°C 53.6°F12.0°C 97% Calm Calm -- 29.39 in995.3 mb 0.00 in0.0 mm 0.00 in0.0 mm 0.10 in2.5 mm
10:10 AM 54.6°F12.6°C 53.8°F12.1°C 97% Calm Calm -- 29.39 in995.3 mb 0.00 in0.0 mm 0.00 in0.0 mm 0.10 in2.5 mm
10:30 AM 54.9°F12.7°C 54.1°F12.3°C 97% Calm Calm -- 29.39 in995.3 mb 0.00 in0.0 mm 0.00 in0.0 mm 0.10 in2.5 mm
10:40 AM 55.4°F13.0°C 54.6°F12.6°C 97% Calm Calm -- 29.39 in995.3 mb 0.00 in0.0 mm 0.00 in0.0 mm 0.10 in2.5 mm
10:50 AM 56.2°F13.4°C 55.4°F13.0°C 97% Calm Calm 6.0 mph9.7 kmh 29.40 in995.6 mb 0.00 in0.0 mm 0.00 in0.0 mm 0.10 in2.5 mm
11:00 AM 56.3°F13.5°C 55.5°F13.1°C 97% Calm Calm -- 29.39 in995.3 mb 0.00 in0.0 mm 0.00 in0.0 mm 0.10 in2.5 mm
11:10 AM 55.7°F13.2°C 54.6°F12.6°C 96% Calm Calm -- 29.40 in995.6 mb 0.00 in0.0 mm 0.00 in0.0 mm 0.10 in2.5 mm
11:30 AM 54.8°F12.7°C 53.4°F11.9°C 95% Calm Calm -- 29.41 in995.9 mb 0.00 in0.0 mm 0.00 in0.0 mm 0.10 in2.5 mm
11:40 AM 54.4°F12.4°C 53.0°F11.7°C 95% 3.0 mph SW4.8 kmh SW 9.0 mph14.5 kmh 29.42 in996.3 mb 0.05 in1.3 mm 0.30 in7.6 mm 0.15 in3.8 mm
12:00 PM 51.3°F10.7°C 49.9°F9.9°C 95% 4.0 mph WSW6.4 kmh WSW 4.0 mph6.4 kmh 29.42 in996.3 mb 0.06 in1.5 mm 0.02 in0.5 mm 0.16 in4.1 mm
12:10 PM 50.7°F10.4°C 49.3°F9.6°C 95% Calm Calm 11.0 mph17.7 kmh 29.43 in996.6 mb 0.06 in1.5 mm 0.00 in0.0 mm 0.16 in4.1 mm
12:30 PM 51.0°F10.6°C 49.6°F9.8°C 95% Calm Calm 11.0 mph17.7 kmh 29.43 in996.6 mb 0.09 in2.3 mm 0.09 in2.3 mm 0.19 in4.8 mm
12:40 PM 51.2°F10.7°C 49.8°F9.9°C 95% 1.0 mph SW1.6 kmh SW 10.0 mph16.1 kmh 29.43 in996.6 mb 0.09 in2.3 mm 0.00 in0.0 mm 0.19 in4.8 mm
01:00 PM 50.9°F10.5°C 49.5°F9.7°C 95% 5.0 mph SW8.0 kmh SW 6.0 mph9.7 kmh 29.44 in997.0 mb 0.03 in0.8 mm 0.00 in0.0 mm 0.19 in4.8 mm
01:10 PM 50.2°F10.1°C 48.5°F9.2°C 94% 5.0 mph WSW8.0 kmh WSW 13.0 mph20.9 kmh 29.45 in997.3 mb 0.03 in0.8 mm 0.00 in0.0 mm 0.19 in4.8 mm
01:30 PM 50.7°F10.4°C 49.0°F9.4°C 94% 3.0 mph SW4.8 kmh SW 4.0 mph6.4 kmh 29.45 in997.3 mb 0.00 in0.0 mm 0.00 in0.0 mm 0.19 in4.8 mm
01:40 PM 50.9°F10.5°C 49.2°F9.6°C 94% 4.0 mph WSW6.4 kmh WSW 12.0 mph19.3 kmh 29.45 in997.3 mb 0.00 in0.0 mm 0.00 in0.0 mm 0.19 in4.8 mm
02:00 PM 50.5°F10.3°C 48.6°F9.2°C 93% 10.0 mph NW16.1 kmh NW 12.0 mph19.3 kmh 29.46 in997.6 mb 0.00 in0.0 mm 0.00 in0.0 mm 0.19 in4.8 mm
02:10 PM 50.3°F10.2°C 48.4°F9.1°C 93% Calm Calm 12.0 mph19.3 kmh 29.46 in997.6 mb 0.01 in0.3 mm 0.06 in1.5 mm 0.20 in5.1 mm
02:30 PM 50.2°F10.1°C 48.3°F9.1°C 93% Calm Calm -- 29.46 in997.6 mb 0.02 in0.5 mm 0.03 in0.8 mm 0.21 in5.3 mm
02:40 PM 50.3°F10.2°C 48.4°F9.1°C 93% Calm Calm -- 29.46 in997.6 mb 0.02 in0.5 mm 0.00 in0.0 mm 0.21 in5.3 mm
03:00 PM 50.9°F10.5°C 49.2°F9.6°C 94% Calm Calm -- 29.47 in998.0 mb 0.02 in0.5 mm 0.00 in0.0 mm 0.21 in5.3 mm
03:10 PM 50.7°F10.4°C 48.8°F9.3°C 93% 2.0 mph WSW3.2 kmh WSW 7.0 mph11.3 kmh 29.47 in998.0 mb 0.02 in0.5 mm 0.00 in0.0 mm 0.21 in5.3 mm
03:30 PM 49.8°F9.9°C 47.9°F8.8°C 93% Calm Calm -- 29.47 in998.0 mb 0.00 in0.0 mm 0.00 in0.0 mm 0.21 in5.3 mm
03:40 PM 49.8°F9.9°C 47.9°F8.8°C 93% Calm Calm -- 29.47 in998.0 mb 0.00 in0.0 mm 0.00 in0.0 mm 0.21 in5.3 mm
04:00 PM 49.6°F9.8°C 47.7°F8.7°C 93% Calm Calm -- 29.48 in998.3 mb 0.00 in0.0 mm 0.00 in0.0 mm 0.21 in5.3 mm
04:10 PM 49.5°F9.7°C 47.6°F8.7°C 93% Calm Calm 10.0 mph16.1 kmh 29.49 in998.6 mb 0.01 in0.3 mm 0.06 in1.5 mm 0.22 in5.6 mm
04:30 PM 49.2°F9.6°C 47.3°F8.5°C 93% Calm Calm -- 29.48 in998.3 mb 0.01 in0.3 mm 0.00 in0.0 mm 0.22 in5.6 mm
04:40 PM 49.1°F9.5°C 47.2°F8.4°C 93% Calm Calm 4.0 mph6.4 kmh 29.48 in998.3 mb 0.01 in0.3 mm 0.00 in0.0 mm 0.22 in5.6 mm
05:00 PM 49.3°F9.6°C 47.4°F8.6°C 93% Calm Calm -- 29.48 in998.3 mb 0.01 in0.3 mm 0.00 in0.0 mm 0.22 in5.6 mm
05:10 PM 49.4°F9.7°C 47.5°F8.6°C 93% Calm Calm -- 29.48 in998.3 mb 0.01 in0.3 mm 0.00 in0.0 mm 0.22 in5.6 mm
05:30 PM 49.3°F9.6°C 47.7°F8.7°C 94% Calm Calm -- 29.49 in998.6 mb 0.00 in0.0 mm 0.00 in0.0 mm 0.22 in5.6 mm
05:40 PM 49.0°F9.4°C 47.1°F8.4°C 93% Calm Calm -- 29.49 in998.6 mb 0.00 in0.0 mm 0.00 in0.0 mm 0.22 in5.6 mm
06:00 PM 49.0°F9.4°C 47.4°F8.6°C 94% Calm Calm -- 29.49 in998.6 mb 0.00 in0.0 mm 0.00 in0.0 mm 0.22 in5.6 mm
06:10 PM 48.7°F9.3°C 46.8°F8.2°C 93% Calm Calm -- 29.49 in998.6 mb 0.00 in0.0 mm 0.00 in0.0 mm 0.22 in5.6 mm
06:30 PM 48.6°F9.2°C 47.0°F8.3°C 94% Calm Calm -- 29.49 in998.6 mb 0.00 in0.0 mm 0.00 in0.0 mm 0.22 in5.6 mm
06:40 PM 48.6°F9.2°C 47.0°F8.3°C 94% Calm Calm -- 29.49 in998.6 mb 0.00 in0.0 mm 0.00 in0.0 mm 0.22 in5.6 mm
07:00 PM 48.4°F9.1°C 46.8°F8.2°C 94% Calm Calm -- 29.48 in998.3 mb 0.00 in0.0 mm 0.00 in0.0 mm 0.22 in5.6 mm
07:09 PM 48.2°F9.0°C 46.6°F8.1°C 94% Calm Calm -- 29.48 in998.3 mb 0.00 in0.0 mm 0.00 in0.0 mm 0.22 in5.6 mm
07:30 PM 47.9°F8.8°C 46.5°F8.1°C 95% Calm Calm -- 29.48 in998.3 mb 0.00 in0.0 mm 0.00 in0.0 mm 0.22 in5.6 mm
07:40 PM 47.8°F8.8°C 46.4°F8.0°C 95% Calm Calm -- 29.48 in998.3 mb 0.00 in0.0 mm 0.00 in0.0 mm 0.22 in5.6 mm
08:00 PM 47.4°F8.6°C 46.0°F7.8°C 95% Calm Calm -- 29.48 in998.3 mb 0.00 in0.0 mm 0.00 in0.0 mm 0.22 in5.6 mm
08:10 PM 47.4°F8.6°C 46.0°F7.8°C 95% Calm Calm -- 29.48 in998.3 mb 0.00 in0.0 mm 0.00 in0.0 mm 0.22 in5.6 mm
08:30 PM 47.3°F8.5°C 45.9°F7.7°C 95% Calm Calm -- 29.47 in998.0 mb 0.00 in0.0 mm 0.00 in0.0 mm 0.22 in5.6 mm
08:40 PM 47.1°F8.4°C 45.7°F7.6°C 95% Calm Calm -- 29.47 in998.0 mb 0.00 in0.0 mm 0.00 in0.0 mm 0.22 in5.6 mm
09:00 PM 46.3°F7.9°C 45.0°F7.2°C 95% Calm Calm -- 29.46 in997.6 mb 0.00 in0.0 mm 0.00 in0.0 mm 0.22 in5.6 mm
09:09 PM 46.1°F7.8°C 44.8°F7.1°C 95% Calm Calm -- 29.47 in998.0 mb 0.00 in0.0 mm 0.00 in0.0 mm 0.22 in5.6 mm
09:30 PM 46.4°F8.0°C 45.3°F7.4°C 96% Calm Calm -- 29.47 in998.0 mb 0.00 in0.0 mm 0.00 in0.0 mm 0.22 in5.6 mm
09:40 PM 46.5°F8.1°C 45.4°F7.4°C 96% Calm Calm -- 29.47 in998.0 mb 0.00 in0.0 mm 0.00 in0.0 mm 0.22 in5.6 mm
10:00 PM 46.7°F8.2°C 45.6°F7.6°C 96% Calm Calm -- 29.46 in997.6 mb 0.00 in0.0 mm 0.00 in0.0 mm 0.22 in5.6 mm
10:10 PM 46.6°F8.1°C 45.5°F7.5°C 96% Calm Calm -- 29.46 in997.6 mb 0.00 in0.0 mm 0.00 in0.0 mm 0.22 in5.6 mm
10:30 PM 46.5°F8.1°C 45.4°F7.4°C 96% Calm Calm -- 29.46 in997.6 mb 0.00 in0.0 mm 0.00 in0.0 mm 0.22 in5.6 mm
10:40 PM 46.7°F8.2°C 45.6°F7.6°C 96% Calm Calm -- 29.46 in997.6 mb 0.00 in0.0 mm 0.00 in0.0 mm 0.22 in5.6 mm
11:00 PM 46.8°F8.2°C 45.7°F7.6°C 96% Calm Calm -- 29.46 in997.6 mb 0.00 in0.0 mm 0.00 in0.0 mm 0.22 in5.6 mm
11:10 PM 46.8°F8.2°C 45.7°F7.6°C 96% Calm Calm -- 29.46 in997.6 mb 0.00 in0.0 mm 0.00 in0.0 mm 0.22 in5.6 mm
11:30 PM 47.0°F8.3°C 45.9°F7.7°C 96% Calm Calm -- 29.46 in997.6 mb 0.01 in0.3 mm 0.03 in0.8 mm 0.23 in5.8 mm
11:40 PM 47.0°F8.3°C 45.9°F7.7°C 96% Calm Calm -- 29.46 in997.6 mb 0.01 in0.3 mm 0.00 in0.0 mm 0.23 in5.8 mm